createdAt,value
2023-05-25T00:06:55.591Z,23.20
2023-05-25T00:42:12.938Z,24.93
2023-05-25T01:07:32.710Z,26.87
2023-05-25T01:38:35.992Z,27.83
2023-05-25T02:04:00.316Z,29.93
2023-05-25T02:29:11.779Z,28.20
2023-05-25T02:54:26.992Z,27.37
2023-05-25T03:19:50.967Z,26.73
2023-05-25T03:50:14.384Z,28.43
2023-05-25T04:51:07.289Z,26.83
2023-05-25T05:21:25.130Z,28.50
2023-05-25T05:46:29.371Z,27.57
2023-05-25T06:52:38.694Z,25.10
2023-05-25T07:17:34.056Z,25.03
2023-05-25T07:43:24.901Z,23.37
2023-05-25T10:30:17.774Z,23.07
2023-05-25T10:51:11.847Z,20.52
2023-05-25T11:16:40.379Z,19.42
2023-05-25T11:20:59.549Z,19.40
2023-05-25T12:11:45.695Z,16.02
2023-05-25T12:32:28.844Z,15.65
2023-05-25T12:52:49.780Z,14.00
2023-05-25T13:18:12.534Z,13.75
2023-05-25T14:13:28.156Z,10.43
2023-05-25T14:29:23.853Z,10.15
2023-05-25T15:14:59.887Z,11.45
2023-05-25T15:44:49.088Z,11.05
2023-05-25T16:10:22.125Z,11.75
2023-05-25T16:35:53.862Z,11.85
2023-05-25T17:11:00.897Z,12.30
2023-05-25T17:36:50.296Z,11.73
2023-05-25T18:12:26.037Z,11.52
2023-05-25T18:52:22.545Z,13.13
2023-05-25T19:12:57.589Z,13.47
2023-05-25T19:28:29.728Z,12.97
2023-05-25T19:53:50.201Z,12.53
2023-05-25T20:24:01.395Z,15.07
2023-05-25T20:44:28.730Z,15.17
2023-05-25T21:14:47.777Z,15.93
2023-05-25T21:40:17.625Z,16.70
2023-05-25T22:00:33.935Z,14.77
2023-05-25T22:35:28.473Z,12.27
2023-05-25T22:55:49.546Z,11.73
2023-05-25T23:21:45.536Z,12.50
